createdAt,value
2022-10-26T00:00:08.158Z,98512.59
2022-10-26T00:02:16.679Z,98512.00
2022-10-26T00:04:21.580Z,98514.66
2022-10-26T00:06:29.059Z,98509.44
2022-10-26T00:08:33.875Z,98505.13
2022-10-26T00:10:39.617Z,98507.88
2022-10-26T00:12:47.261Z,98505.31
2022-10-26T00:14:52.181Z,98505.28
2022-10-26T00:16:57.014Z,98502.66
2022-10-26T00:19:01.880Z,98494.00
2022-10-26T00:21:07.191Z,98500.81
2022-10-26T00:23:11.680Z,98498.19
2022-10-26T00:25:16.464Z,98505.97
2022-10-26T00:27:21.219Z,98510.28
2022-10-26T00:29:31.116Z,98509.16
2022-10-26T00:31:36.357Z,98507.25
2022-10-26T00:33:40.860Z,98503.75
2022-10-26T00:35:46.369Z,98498.28
2022-10-26T00:37:51.553Z,98486.69
2022-10-26T00:39:56.398Z,98489.00
2022-10-26T00:42:01.143Z,98488.06
2022-10-26T00:44:36.868Z,98498.31
2022-10-26T00:46:44.455Z,98488.66
2022-10-26T00:48:52.814Z,98492.16
2022-10-26T00:51:01.568Z,98477.34
2022-10-26T00:53:08.132Z,98478.22
2022-10-26T00:55:13.434Z,98477.00
2022-10-26T00:57:20.137Z,98470.59
2022-10-26T00:59:26.053Z,98460.75
2022-10-26T01:01:31.743Z,98456.34
2022-10-26T01:03:40.883Z,98455.59
2022-10-26T01:05:48.270Z,98452.66
2022-10-26T01:07:54.584Z,98459.66
2022-10-26T01:10:00.269Z,98460.50
2022-10-26T01:12:05.021Z,98456.88
2022-10-26T01:14:12.733Z,98455.06
2022-10-26T01:16:43.424Z,98442.34
2022-10-26T01:19:02.303Z,98449.84
2022-10-26T01:21:45.504Z,98457.66
2022-10-26T01:24:09.917Z,98458.47
2022-10-26T01:26:47.559Z,98453.94
2022-10-26T01:29:25.881Z,98449.50
2022-10-26T01:31:37.359Z,98445.94
2022-10-26T01:33:47.759Z,98443.19
2022-10-26T01:36:01.074Z,98451.72
2022-10-26T01:38:12.471Z,98452.44
2022-10-26T01:40:22.488Z,98455.97
2022-10-26T01:42:29.311Z,98455.13
2022-10-26T01:44:41.987Z,98456.66
2022-10-26T01:46:52.941Z,98456.34
2022-10-26T01:49:02.479Z,98452.56
2022-10-26T01:51:09.125Z,98449.66
2022-10-26T01:53:15.334Z,98439.81
2022-10-26T01:55:43.453Z,98430.16
2022-10-26T01:57:48.614Z,98438.06
2022-10-26T02:00:10.968Z,98438.97
2022-10-26T02:02:38.304Z,98439.97
2022-10-26T02:04:54.769Z,98467.53
2022-10-26T02:07:06.168Z,98473.09
2022-10-26T02:09:23.112Z,98466.34
2022-10-26T02:11:39.379Z,98470.50
2022-10-26T02:13:49.661Z,98471.34
2022-10-26T02:15:58.377Z,98465.97
2022-10-26T02:18:12.582Z,98462.47
2022-10-26T02:20:24.778Z,98453.69
2022-10-26T02:22:35.211Z,98446.69
2022-10-26T02:24:40.785Z,98437.09
2022-10-26T02:26:49.183Z,98442.09
2022-10-26T02:28:56.805Z,98439.34
2022-10-26T02:31:04.154Z,98421.00
2022-10-26T02:33:13.817Z,98432.19
2022-10-26T02:35:20.348Z,98445.50
2022-10-26T02:37:27.246Z,98451.31
2022-10-26T02:39:36.429Z,98449.09
2022-10-26T02:41:43.642Z,98438.41
2022-10-26T02:43:56.949Z,98442.44
2022-10-26T02:46:08.481Z,98430.06
2022-10-26T02:48:15.980Z,98434.19
2022-10-26T02:50:22.303Z,98429.84
2022-10-26T02:52:33.270Z,98440.16
2022-10-26T02:54:49.094Z,98451.28
2022-10-26T02:56:58.401Z,98448.47
2022-10-26T02:59:08.223Z,98436.09
2022-10-26T03:01:13.191Z,98432.63
2022-10-26T03:03:22.477Z,98439.59
2022-10-26T03:05:29.650Z,98445.53
2022-10-26T03:07:34.572Z,98449.84
2022-10-26T03:09:39.319Z,98441.91
2022-10-26T03:11:44.070Z,98449.75
2022-10-26T03:13:49.050Z,98447.06
2022-10-26T03:15:53.786Z,98448.16
2022-10-26T03:17:58.453Z,98439.44
2022-10-26T03:20:06.985Z,98446.38
2022-10-26T03:22:11.717Z,98447.22
2022-10-26T03:24:16.485Z,98445.41
2022-10-26T03:26:21.236Z,98447.00
2022-10-26T03:28:26.048Z,98442.53
2022-10-26T03:30:32.076Z,98441.56
2022-10-26T03:32:36.944Z,98446.78
2022-10-26T03:34:41.659Z,98444.25
2022-10-26T03:36:49.177Z,98439.00
2022-10-26T03:38:53.934Z,98433.78
2022-10-26T03:40:58.797Z,98433.00
2022-10-26T03:43:03.481Z,98436.56
2022-10-26T03:45:10.160Z,98434.84
2022-10-26T03:47:14.920Z,98433.16
2022-10-26T03:49:19.662Z,98428.84
2022-10-26T03:51:24.543Z,98429.78
2022-10-26T03:53:31.951Z,98438.59
2022-10-26T03:55:36.766Z,98440.38
2022-10-26T03:57:45.380Z,98445.69
2022-10-26T03:59:50.117Z,98442.63
2022-10-26T04:01:57.668Z,98443.59
2022-10-26T04:04:03.028Z,98444.66
2022-10-26T04:06:08.417Z,98445.44
2022-10-26T04:08:13.115Z,98451.28
2022-10-26T04:10:20.741Z,98445.91
2022-10-26T04:12:27.543Z,98446.69
2022-10-26T04:14:32.270Z,98450.94
2022-10-26T04:16:37.186Z,98445.75
2022-10-26T04:18:41.920Z,98448.47
2022-10-26T04:20:47.026Z,98451.19
2022-10-26T04:22:59.585Z,98458.19
2022-10-26T04:25:04.286Z,98464.22
2022-10-26T04:27:11.610Z,98457.31
2022-10-26T04:29:16.718Z,98463.38
2022-10-26T04:31:21.428Z,98466.81
2022-10-26T04:33:26.291Z,98469.28
2022-10-26T04:35:31.673Z,98470.81
2022-10-26T04:37:36.749Z,98479.38
2022-10-26T04:39:41.498Z,98472.28
2022-10-26T04:41:46.273Z,98483.66
2022-10-26T04:43:53.656Z,98492.44
2022-10-26T04:45:58.836Z,98490.66
2022-10-26T04:48:07.383Z,98482.81
2022-10-26T04:50:13.835Z,98476.59
2022-10-26T04:52:18.584Z,98474.69
2022-10-26T04:54:23.568Z,98473.78
2022-10-26T04:56:31.441Z,98479.84
2022-10-26T04:58:36.199Z,98473.78
2022-10-26T05:00:43.623Z,98481.63
2022-10-26T05:02:48.359Z,98479.84
2022-10-26T05:04:53.156Z,98481.56
2022-10-26T05:06:57.953Z,98476.34
2022-10-26T05:09:02.711Z,98470.25
2022-10-26T05:11:07.742Z,98455.47
2022-10-26T05:13:12.449Z,98454.69
2022-10-26T05:15:17.356Z,98469.81
2022-10-26T05:17:24.697Z,98474.91
2022-10-26T05:19:29.746Z,98469.44
2022-10-26T05:21:34.580Z,98474.56
2022-10-26T05:23:39.341Z,98478.94
2022-10-26T05:25:44.521Z,98479.63
2022-10-26T05:27:49.235Z,98473.31
2022-10-26T05:29:54.010Z,98478.47
2022-10-26T05:31:58.798Z,98485.25
2022-10-26T05:34:06.297Z,98474.56
2022-10-26T05:36:11.494Z,98477.88
2022-10-26T05:38:17.043Z,98487.44
2022-10-26T05:40:22.506Z,98484.88
2022-10-26T05:42:27.547Z,98482.94
2022-10-26T05:44:32.164Z,98481.41
2022-10-26T05:46:36.918Z,98478.81
2022-10-26T05:48:41.639Z,98471.72
2022-10-26T05:50:49.524Z,98482.19
2022-10-26T05:52:55.450Z,98478.81
2022-10-26T05:55:00.248Z,98471.72
2022-10-26T05:57:09.218Z,98472.56
2022-10-26T05:59:17.398Z,98474.41
2022-10-26T06:01:33.329Z,98474.56
2022-10-26T06:03:50.376Z,98478.28
2022-10-26T06:06:02.589Z,98477.03
2022-10-26T06:08:13.181Z,98477.03
2022-10-26T06:10:19.129Z,98488.94
2022-10-26T06:12:26.092Z,98494.03
2022-10-26T06:14:31.329Z,98488.56
2022-10-26T06:16:47.249Z,98493.50
2022-10-26T06:19:02.856Z,98489.16
2022-10-26T06:21:22.571Z,98488.47
2022-10-26T06:23:50.361Z,98493.03
2022-10-26T06:26:04.009Z,98493.97
2022-10-26T06:28:19.727Z,98494.81
2022-10-26T06:30:24.733Z,98493.03
2022-10-26T06:32:31.825Z,98503.53
2022-10-26T06:34:39.847Z,98498.63
2022-10-26T06:36:47.500Z,98504.69
2022-10-26T06:38:58.033Z,98515.31
2022-10-26T06:41:03.321Z,98513.00
2022-10-26T06:43:14.730Z,98505.00
2022-10-26T06:45:20.857Z,98509.31
2022-10-26T06:47:31.350Z,98498.88
2022-10-26T06:49:41.026Z,98509.31
2022-10-26T06:51:54.195Z,98494.25
2022-10-26T06:54:08.450Z,98503.69
2022-10-26T06:56:15.666Z,98500.78
2022-10-26T06:58:22.206Z,98503.34
2022-10-26T07:00:29.895Z,98495.63
2022-10-26T07:02:34.896Z,98493.81
2022-10-26T07:04:39.705Z,98503.34
2022-10-26T07:06:44.848Z,98512.13
2022-10-26T07:08:52.045Z,98520.84
2022-10-26T07:10:56.827Z,98518.97
2022-10-26T07:13:01.601Z,98530.94
2022-10-26T07:17:15.085Z,98534.88
2022-10-26T07:19:19.819Z,98542.34
2022-10-26T07:21:24.587Z,98532.31
2022-10-26T07:25:40.509Z,98539.31
2022-10-26T07:27:45.618Z,98537.22
2022-10-26T07:29:50.421Z,98539.41
2022-10-26T07:31:56.056Z,98535.34
2022-10-26T07:34:00.909Z,98533.19
2022-10-26T07:36:05.651Z,98532.19
2022-10-26T07:38:11.283Z,98531.94
2022-10-26T07:40:16.452Z,98538.94
2022-10-26T07:42:23.595Z,98546.13
2022-10-26T07:44:31.298Z,98547.63
2022-10-26T07:46:36.042Z,98548.41
2022-10-26T07:48:41.274Z,98557.09
2022-10-26T07:50:46.040Z,98557.88
2022-10-26T07:52:51.131Z,98557.03
2022-10-26T07:54:56.234Z,98551.72
2022-10-26T07:57:03.011Z,98556.88
2022-10-26T07:59:10.618Z,98565.34
2022-10-26T08:01:17.866Z,98567.03
2022-10-26T08:03:23.833Z,98565.09
2022-10-26T08:07:35.488Z,98562.28
2022-10-26T08:09:40.218Z,98556.94
2022-10-26T08:11:45.085Z,98571.81
2022-10-26T08:16:02.871Z,98563.56
2022-10-26T08:18:08.494Z,98566.16
2022-10-26T08:20:14.534Z,98561.09
2022-10-26T08:22:19.383Z,98570.81
2022-10-26T08:24:25.593Z,98583.97
2022-10-26T08:26:30.746Z,98570.13
2022-10-26T08:28:35.294Z,98571.16
2022-10-26T08:30:40.040Z,98566.72
2022-10-26T08:32:47.726Z,98562.09
2022-10-26T08:34:52.915Z,98565.22
2022-10-26T08:36:57.708Z,98570.25
2022-10-26T08:39:02.553Z,98562.22
2022-10-26T08:41:11.701Z,98565.34
2022-10-26T08:43:22.512Z,98565.50
2022-10-26T08:45:36.926Z,98568.31
2022-10-26T08:47:52.617Z,98567.72
2022-10-26T08:50:02.922Z,98561.00
2022-10-26T08:52:12.150Z,98556.19
2022-10-26T08:54:22.315Z,98567.00
2022-10-26T08:56:29.629Z,98563.78
2022-10-26T08:58:41.509Z,98561.38
2022-10-26T09:00:47.104Z,98566.53
2022-10-26T09:02:56.050Z,98566.28
2022-10-26T09:05:02.166Z,98567.63
2022-10-26T09:07:14.957Z,98560.44
2022-10-26T09:09:24.891Z,98567.84
2022-10-26T09:11:52.882Z,98561.31
2022-10-26T09:14:07.561Z,98566.19
2022-10-26T09:16:25.691Z,98563.28
2022-10-26T09:18:43.039Z,98561.34
2022-10-26T09:21:11.121Z,98574.09
2022-10-26T09:23:30.470Z,98576.06
2022-10-26T09:25:42.645Z,98560.78
2022-10-26T09:27:52.366Z,98570.72
2022-10-26T09:29:59.376Z,98577.47
2022-10-26T09:32:06.102Z,98582.47
2022-10-26T09:34:21.540Z,98575.34
2022-10-26T09:36:26.563Z,98580.09
2022-10-26T09:38:33.476Z,98580.09
2022-10-26T09:40:45.275Z,98574.97
2022-10-26T09:42:55.153Z,98584.63
2022-10-26T09:45:04.779Z,98594.66
2022-10-26T09:47:18.890Z,98590.72
2022-10-26T09:49:33.103Z,98587.53
2022-10-26T09:51:42.478Z,98592.59
2022-10-26T09:53:47.393Z,98597.69
2022-10-26T09:56:04.229Z,98590.81
2022-10-26T09:58:16.755Z,98595.81
2022-10-26T10:00:23.638Z,98597.41
2022-10-26T10:02:40.015Z,98598.91
2022-10-26T10:04:50.758Z,98598.59
2022-10-26T10:07:14.726Z,98608.97
2022-10-26T10:09:21.158Z,98599.28
2022-10-26T10:11:39.491Z,98608.47
2022-10-26T10:13:45.955Z,98605.44
2022-10-26T10:15:57.968Z,98607.50
2022-10-26T10:18:03.401Z,98605.34
2022-10-26T10:20:22.669Z,98611.03
2022-10-26T10:22:31.110Z,98612.31
2022-10-26T10:24:38.477Z,98609.00
2022-10-26T10:26:59.819Z,98609.16
2022-10-26T10:29:04.593Z,98607.09
2022-10-26T10:31:22.682Z,98603.84
2022-10-26T10:33:36.470Z,98606.84
2022-10-26T10:35:52.904Z,98608.25
2022-10-26T10:37:57.664Z,98605.41
2022-10-26T10:40:05.306Z,98607.50
2022-10-26T10:42:20.051Z,98601.72
2022-10-26T10:44:30.188Z,98605.94
2022-10-26T10:46:35.168Z,98600.28
2022-10-26T10:48:49.259Z,98599.00
2022-10-26T10:50:59.724Z,98591.53
2022-10-26T10:53:23.350Z,98593.94
2022-10-26T10:55:31.238Z,98595.66
2022-10-26T10:57:48.052Z,98602.69
2022-10-26T11:00:05.423Z,98590.69
2022-10-26T11:02:34.698Z,98600.28
2022-10-26T11:05:15.170Z,98604.59
2022-10-26T11:07:25.038Z,98613.91
2022-10-26T11:09:32.456Z,98617.47
2022-10-26T11:11:45.458Z,98616.31
2022-10-26T11:13:56.791Z,98611.75
2022-10-26T11:16:05.816Z,98614.31
2022-10-26T11:18:15.961Z,98615.91
2022-10-26T11:20:26.136Z,98621.16
2022-10-26T11:22:38.554Z,98619.38
2022-10-26T11:24:47.637Z,98619.38
2022-10-26T11:26:57.337Z,98625.41
2022-10-26T11:29:06.078Z,98625.47
2022-10-26T11:31:16.318Z,98619.06
2022-10-26T11:33:28.510Z,98624.22
2022-10-26T11:35:38.440Z,98623.16
2022-10-26T11:37:50.683Z,98632.44
2022-10-26T11:40:05.574Z,98624.25
2022-10-26T11:42:22.885Z,98628.34
2022-10-26T11:44:34.525Z,98632.56
2022-10-26T11:46:44.615Z,98630.53
2022-10-26T11:48:57.294Z,98631.94
2022-10-26T11:51:02.995Z,98633.63
2022-10-26T11:53:15.748Z,98629.94
2022-10-26T11:55:21.750Z,98629.63
2022-10-26T11:57:29.070Z,98624.97
2022-10-26T11:59:36.507Z,98630.16
2022-10-26T12:01:41.368Z,98633.50
2022-10-26T12:03:51.189Z,98627.16
2022-10-26T12:05:56.918Z,98637.28
2022-10-26T12:08:06.817Z,98637.81
2022-10-26T12:10:27.691Z,98637.72
2022-10-26T12:12:43.036Z,98637.81
2022-10-26T12:14:52.294Z,98631.69
2022-10-26T12:17:05.427Z,98640.84
2022-10-26T12:19:18.791Z,98640.97
2022-10-26T12:21:23.982Z,98655.00
2022-10-26T12:23:40.485Z,98644.34
2022-10-26T12:26:30.209Z,98644.97
2022-10-26T12:28:43.706Z,98650.03
2022-10-26T12:30:48.473Z,98646.44
2022-10-26T12:32:56.053Z,98654.47
2022-10-26T12:35:06.800Z,98651.63
2022-10-26T12:37:29.331Z,98642.75
2022-10-26T12:39:35.672Z,98654.47
2022-10-26T12:41:43.290Z,98649.91
2022-10-26T12:43:48.512Z,98640.19
2022-10-26T12:46:23.124Z,98643.56
2022-10-26T12:48:43.122Z,98658.34
2022-10-26T12:50:47.884Z,98645.91
2022-10-26T12:52:56.067Z,98648.53
2022-10-26T12:55:20.905Z,98645.91
2022-10-26T12:57:35.644Z,98653.28
2022-10-26T12:59:49.008Z,98653.06
2022-10-26T13:02:29.369Z,98649.81
2022-10-26T13:05:22.348Z,98658.13
2022-10-26T13:07:28.635Z,98657.91
2022-10-26T13:09:35.854Z,98652.31
2022-10-26T13:11:48.884Z,98657.03
2022-10-26T13:14:03.445Z,98661.75
2022-10-26T13:16:13.056Z,98664.56
2022-10-26T13:18:20.780Z,98661.41
2022-10-26T13:20:25.731Z,98662.16
2022-10-26T13:22:31.434Z,98658.03
2022-10-26T13:27:12.536Z,98664.25
2022-10-26T13:29:19.942Z,98659.81
2022-10-26T13:31:54.673Z,98664.69
2022-10-26T13:34:03.024Z,98665.34
2022-10-26T13:36:21.045Z,98671.06
2022-10-26T13:38:30.030Z,98671.38
2022-10-26T13:40:35.003Z,98673.28
2022-10-26T13:42:48.704Z,98675.41
2022-10-26T13:44:59.080Z,98681.94
2022-10-26T13:47:07.009Z,98691.97
2022-10-26T13:49:21.091Z,98686.91
2022-10-26T13:51:44.006Z,98693.34
2022-10-26T13:53:55.371Z,98695.34
2022-10-26T13:56:06.113Z,98699.91
2022-10-26T13:58:21.394Z,98693.84
2022-10-26T14:00:31.844Z,98697.44
2022-10-26T14:02:36.696Z,98703.00
2022-10-26T14:04:41.422Z,98693.44
2022-10-26T14:06:51.775Z,98710.19
2022-10-26T14:09:00.845Z,98709.47
2022-10-26T14:11:05.966Z,98707.97
2022-10-26T14:13:12.293Z,98713.03
2022-10-26T14:15:18.340Z,98717.38
2022-10-26T14:17:28.670Z,98718.22
2022-10-26T14:19:36.014Z,98721.81
2022-10-26T14:21:50.056Z,98732.34
2022-10-26T14:23:57.070Z,98730.44
2022-10-26T14:26:02.012Z,98739.94
2022-10-26T14:28:28.299Z,98730.22
2022-10-26T14:30:37.202Z,98734.44
2022-10-26T14:32:44.611Z,98734.91
2022-10-26T14:34:49.480Z,98732.38
2022-10-26T14:36:58.795Z,98733.34
2022-10-26T14:39:06.404Z,98743.13
2022-10-26T14:41:11.457Z,98742.28
2022-10-26T14:43:21.219Z,98748.06
2022-10-26T14:47:59.180Z,98745.72
2022-10-26T14:50:05.035Z,98749.00
2022-10-26T14:52:10.511Z,98744.66
2022-10-26T14:54:23.685Z,98746.16
2022-10-26T14:56:31.875Z,98753.97
2022-10-26T14:58:37.840Z,98746.78
2022-10-26T15:00:43.336Z,98749.34
2022-10-26T15:02:50.731Z,98751.09
2022-10-26T15:05:03.866Z,98758.94
2022-10-26T15:07:18.334Z,98763.38
2022-10-26T15:09:41.868Z,98761.56
2022-10-26T15:11:47.198Z,98761.56
2022-10-26T15:13:52.089Z,98769.47
2022-10-26T15:15:58.560Z,98774.75
2022-10-26T15:18:04.527Z,98778.19
2022-10-26T15:20:18.877Z,98782.28
2022-10-26T15:22:32.053Z,98777.00
2022-10-26T15:24:40.674Z,98777.84
2022-10-26T15:26:46.330Z,98772.56
2022-10-26T15:28:52.858Z,98786.72
2022-10-26T15:31:05.744Z,98786.59
2022-10-26T15:33:22.926Z,98790.19
2022-10-26T15:35:32.970Z,98780.69
2022-10-26T15:37:37.725Z,98786.16
2022-10-26T15:39:42.801Z,98782.66
2022-10-26T15:41:50.371Z,98787.81
2022-10-26T15:43:57.637Z,98798.16
2022-10-26T15:46:02.402Z,98804.13
2022-10-26T15:48:22.855Z,98803.69
2022-10-26T15:50:31.661Z,98808.97
2022-10-26T15:52:36.358Z,98807.09
2022-10-26T15:54:41.076Z,98797.25
2022-10-26T15:56:46.463Z,98811.31
2022-10-26T15:58:51.195Z,98806.69
2022-10-26T16:00:56.005Z,98808.34
2022-10-26T16:03:00.919Z,98804.88
2022-10-26T16:05:05.847Z,98811.84
2022-10-26T16:07:15.825Z,98808.16
2022-10-26T16:09:21.672Z,98814.47
2022-10-26T16:11:28.638Z,98811.84
2022-10-26T16:13:33.460Z,98816.06
2022-10-26T16:15:39.793Z,98817.03
2022-10-26T16:17:44.549Z,98822.28
2022-10-26T16:19:50.758Z,98822.50
2022-10-26T16:21:55.555Z,98828.81
2022-10-26T16:24:02.905Z,98830.59
2022-10-26T16:26:08.055Z,98834.28
2022-10-26T16:28:13.677Z,98840.03
2022-10-26T16:30:19.503Z,98843.72
2022-10-26T16:32:26.885Z,98845.53
2022-10-26T16:34:31.805Z,98849.00
2022-10-26T16:36:38.699Z,98842.88
2022-10-26T16:38:43.713Z,98855.97
2022-10-26T16:40:51.175Z,98855.13
2022-10-26T16:42:55.878Z,98871.03
2022-10-26T16:45:02.789Z,98864.28
2022-10-26T16:47:08.131Z,98868.88
2022-10-26T16:49:13.081Z,98873.50
2022-10-26T16:51:19.923Z,98872.66
2022-10-26T16:53:24.814Z,98884.91
2022-10-26T16:55:29.887Z,98881.34
2022-10-26T16:57:37.697Z,98888.69
2022-10-26T16:59:42.594Z,98889.63
2022-10-26T17:01:47.374Z,98887.91
2022-10-26T17:03:54.166Z,98883.50
2022-10-26T17:06:00.636Z,98884.38
2022-10-26T17:08:05.485Z,98892.34
2022-10-26T17:10:11.169Z,98897.72
2022-10-26T17:12:16.975Z,98896.03
2022-10-26T17:14:24.424Z,98901.28
2022-10-26T17:16:29.497Z,98904.88
2022-10-26T17:18:34.110Z,98906.94
2022-10-26T17:20:39.000Z,98907.16
2022-10-26T17:22:43.820Z,98910.06
2022-10-26T17:24:48.722Z,98910.34
2022-10-26T17:26:53.457Z,98917.69
2022-10-26T17:29:00.271Z,98920.69
2022-10-26T17:31:10.012Z,98925.41
2022-10-26T17:33:15.297Z,98938.25
2022-10-26T17:35:20.144Z,98936.91
2022-10-26T17:37:24.990Z,98942.75
2022-10-26T17:39:29.863Z,98948.75
2022-10-26T17:41:34.620Z,98945.72
2022-10-26T17:43:41.822Z,98952.19
2022-10-26T17:45:46.605Z,98958.63
2022-10-26T17:47:54.063Z,98970.28
2022-10-26T17:49:59.004Z,98972.34
2022-10-26T17:52:04.210Z,98973.34
2022-10-26T17:54:09.465Z,98970.06
2022-10-26T17:56:15.001Z,98973.22
2022-10-26T17:58:19.804Z,98985.88
2022-10-26T18:00:24.553Z,98990.44
2022-10-26T18:02:31.967Z,98990.53
2022-10-26T18:04:39.463Z,98990.72
2022-10-26T18:06:44.212Z,98992.56
2022-10-26T18:08:49.279Z,98995.38
2022-10-26T18:10:55.465Z,99010.38
2022-10-26T18:13:00.180Z,99003.56
2022-10-26T18:15:05.133Z,99013.41
2022-10-26T18:17:09.862Z,99012.75
2022-10-26T18:19:14.811Z,99019.03
2022-10-26T18:21:23.553Z,99014.78
2022-10-26T18:23:28.568Z,99019.25
2022-10-26T18:25:34.063Z,99019.44
2022-10-26T18:27:38.915Z,99016.91
2022-10-26T18:29:43.664Z,99021.38
2022-10-26T18:31:49.470Z,99032.38
2022-10-26T18:33:58.197Z,99028.31
2022-10-26T18:36:08.185Z,99030.22
2022-10-26T18:38:15.540Z,99033.03
2022-10-26T18:40:20.517Z,99032.44
2022-10-26T18:42:28.026Z,99029.09
2022-10-26T18:44:32.846Z,99033.69
2022-10-26T18:46:45.483Z,99047.75
2022-10-26T18:48:50.303Z,99047.13
2022-10-26T18:50:54.981Z,99047.28
2022-10-26T18:52:59.842Z,99054.41
2022-10-26T18:55:07.791Z,99047.53
2022-10-26T18:57:12.546Z,99052.94
2022-10-26T18:59:17.318Z,99053.97
2022-10-26T19:01:24.151Z,99050.47
2022-10-26T19:03:29.184Z,99051.41
2022-10-26T19:05:34.001Z,99057.59
2022-10-26T19:07:40.174Z,99054.19
2022-10-26T19:09:45.020Z,99058.66
2022-10-26T19:11:52.497Z,99058.75
2022-10-26T19:13:58.056Z,99068.47
2022-10-26T19:16:05.212Z,99076.41
2022-10-26T19:18:10.061Z,99075.69
2022-10-26T19:20:14.932Z,99094.28
2022-10-26T19:22:22.466Z,99085.50
2022-10-26T19:24:27.314Z,99090.81
2022-10-26T19:26:36.780Z,99086.53
2022-10-26T19:28:46.044Z,99097.28
2022-10-26T19:30:50.791Z,99091.31
2022-10-26T19:32:55.656Z,99101.06
2022-10-26T19:35:00.397Z,99094.06
2022-10-26T19:37:05.684Z,99101.06
2022-10-26T19:39:10.467Z,99100.97
2022-10-26T19:41:17.081Z,99108.84
2022-10-26T19:43:24.802Z,99104.56
2022-10-26T19:45:32.272Z,99110.81
2022-10-26T19:47:37.124Z,99107.59
2022-10-26T19:49:42.058Z,99110.28
2022-10-26T19:51:47.947Z,99108.66
2022-10-26T19:53:52.768Z,99109.66
2022-10-26T19:55:59.926Z,99124.53
2022-10-26T19:58:04.639Z,99115.88
2022-10-26T20:00:11.358Z,99121.28
2022-10-26T20:02:26.612Z,99124.84
2022-10-26T20:04:31.511Z,99128.59
2022-10-26T20:06:36.284Z,99134.78
2022-10-26T20:08:41.705Z,99137.41
2022-10-26T20:10:47.311Z,99141.09
2022-10-26T20:12:52.463Z,99140.38
2022-10-26T20:14:57.494Z,99138.91
2022-10-26T20:17:02.267Z,99137.28
2022-10-26T20:19:09.633Z,99149.63
2022-10-26T20:21:16.404Z,99149.91
2022-10-26T20:23:21.168Z,99155.16
2022-10-26T20:25:26.089Z,99155.16
2022-10-26T20:27:30.943Z,99155.16
2022-10-26T20:29:35.737Z,99160.41
2022-10-26T20:31:40.443Z,99159.53
2022-10-26T20:33:45.843Z,99157.06
2022-10-26T20:35:58.465Z,99163.22
2022-10-26T20:38:04.556Z,99164.22
2022-10-26T20:40:12.616Z,99166.06
2022-10-26T20:42:28.394Z,99159.13
2022-10-26T20:44:37.993Z,99164.50
2022-10-26T20:46:43.525Z,99170.69
2022-10-26T20:48:48.975Z,99162.88
2022-10-26T20:51:06.033Z,99169.94
2022-10-26T20:53:16.721Z,99174.44
2022-10-26T20:55:32.088Z,99169.47
2022-10-26T20:57:38.176Z,99175.69
2022-10-26T20:59:49.553Z,99172.19
2022-10-26T21:01:54.429Z,99181.84
2022-10-26T21:04:00.519Z,99182.91
2022-10-26T21:06:08.294Z,99180.41
2022-10-26T21:08:13.095Z,99186.66
2022-10-26T21:10:18.018Z,99185.84
2022-10-26T21:12:22.871Z,99190.25
2022-10-26T21:14:27.643Z,99193.94
2022-10-26T21:16:32.442Z,99189.72
2022-10-26T21:18:37.313Z,99196.09
2022-10-26T21:20:42.025Z,99193.75
2022-10-26T21:22:49.386Z,99193.00
2022-10-26T21:24:54.181Z,99206.22
2022-10-26T21:26:58.887Z,99195.81
2022-10-26T21:29:03.925Z,99203.59
2022-10-26T21:31:11.082Z,99197.44
2022-10-26T21:33:16.003Z,99200.19
2022-10-26T21:35:21.861Z,99204.72
2022-10-26T21:37:28.086Z,99204.84
2022-10-26T21:39:35.408Z,99200.53
2022-10-26T21:41:40.137Z,99198.81
2022-10-26T21:43:47.153Z,99196.28
2022-10-26T21:45:59.078Z,99202.38
2022-10-26T21:48:03.850Z,99208.56
2022-10-26T21:50:09.761Z,99200.81
2022-10-26T21:52:14.723Z,99194.75
2022-10-26T21:54:19.444Z,99200.13
2022-10-26T21:56:26.855Z,99192.31
2022-10-26T21:58:32.309Z,99195.06
2022-10-26T22:00:37.309Z,99201.28
2022-10-26T22:02:42.067Z,99210.00
2022-10-26T22:04:46.791Z,99211.75
2022-10-26T22:06:51.513Z,99213.50
2022-10-26T22:08:56.664Z,99209.16
2022-10-26T22:11:01.283Z,99215.34
2022-10-26T22:13:08.588Z,99209.28
2022-10-26T22:15:13.829Z,99206.75
2022-10-26T22:17:18.311Z,99203.50
2022-10-26T22:19:23.126Z,99200.25
2022-10-26T22:21:29.950Z,99203.84
2022-10-26T22:23:36.871Z,99206.50
2022-10-26T22:25:41.780Z,99210.16
2022-10-26T22:27:46.840Z,99205.94
2022-10-26T22:29:54.138Z,99204.47
2022-10-26T22:31:59.001Z,99207.13
2022-10-26T22:34:07.726Z,99210.00
2022-10-26T22:36:15.435Z,99209.06
2022-10-26T22:38:20.134Z,99221.47
2022-10-26T22:40:24.979Z,99218.13
2022-10-26T22:42:29.869Z,99213.16
2022-10-26T22:44:34.644Z,99218.50
2022-10-26T22:46:42.034Z,99213.16
2022-10-26T22:48:47.233Z,99214.06
2022-10-26T22:50:51.703Z,99221.19
2022-10-26T22:52:56.505Z,99220.31
2022-10-26T22:55:01.277Z,99222.94
2022-10-26T22:57:06.138Z,99233.34
2022-10-26T22:59:10.941Z,99225.53
2022-10-26T23:01:18.297Z,99227.19
2022-10-26T23:03:25.879Z,99230.75
2022-10-26T23:05:30.701Z,99232.50
2022-10-26T23:07:35.439Z,99232.50
2022-10-26T23:09:40.222Z,99233.41
2022-10-26T23:11:44.961Z,99237.72
2022-10-26T23:13:50.008Z,99233.34
2022-10-26T23:15:54.724Z,99235.88
2022-10-26T23:17:59.734Z,99241.31
2022-10-26T23:20:08.032Z,99230.00
2022-10-26T23:22:12.780Z,99232.53
2022-10-26T23:24:17.497Z,99235.97
2022-10-26T23:26:23.786Z,99236.00
2022-10-26T23:28:31.295Z,99229.13
2022-10-26T23:30:36.096Z,99230.28
2022-10-26T23:32:40.795Z,99235.69
2022-10-26T23:34:45.536Z,99229.84
2022-10-26T23:36:53.358Z,99230.75
2022-10-26T23:38:58.107Z,99236.97
2022-10-26T23:41:03.128Z,99238.72
2022-10-26T23:43:07.734Z,99235.47
2022-10-26T23:45:13.381Z,99239.03
2022-10-26T23:47:18.100Z,99231.16
2022-10-26T23:49:22.970Z,99233.94
2022-10-26T23:51:27.810Z,99227.09
2022-10-26T23:53:35.231Z,99228.97
2022-10-26T23:55:40.130Z,99236.81
2022-10-26T23:57:44.978Z,99238.59
2022-10-26T23:59:49.730Z,99242.97
